Hastings, Florida
Current Conditions -  °F | °C
As of 1:35 AM on Saturday 20 Dec 2014 (Local Time) from K28J Reporting Station
Broken Clouds Broken Clouds  
Wind Chill: 44°   Ceiling: 300
Heat Index: 46°   Visibility: 10mi
Dew Point: 46°   Wind: 5mph
Humidity: 100%   Direction: 300°WNW
Pressure: 30.1"   Gusts: NA
Location:  29.72°N, 81.51°W
Report Text: K28J 200635Z AUTO 30004KT 10SM BKN003 08/08 A3010 RMK AO2
Loading
Personal Weather Stations






























Interactive Weather Map New forecast layout! Learn more

10-Day Weather Forecast

Advertisements
Track Severe Weather on mobile